Time;durP1;ratioP1;P1;durP2;ratioP2;P2;SDS_P1;SDS_P2;PMS_P1;PMS_P2;Temp;Humidity;BMP_temperature;BMP_pressure;BME280_temperature;BME280_humidity;BME280_pressure;Samples;Min_cycle;Max_cycle;Signal;HPM_P1;HPM_P2
2022/07/29 00:01:41;;;;;;;;;;;;;;;30.16;29.25;99102.50;4377638;32;34419;-89
2022/07/29 00:04:09;;;;;;;;;;;;;;;28.94;31.35;99099.81;4390968;32;33528;-90
2022/07/29 00:06:36;;;;;;;;;;;;;;;29.45;30.57;99106.31;4390945;32;35026;-93
2022/07/29 00:09:04;;;;;;;;;;;;;;;28.93;31.48;99106.97;4390756;32;35339;-91
2022/07/29 00:11:32;;;;;;;;;;;;;;;29.46;30.72;99096.47;4387952;32;34171;-89
2022/07/29 00:13:59;;;;;;;;;;;;;;;28.24;32.65;99105.06;4390546;32;33337;-89
2022/07/29 00:16:26;;;;;;;;;;;;;;;28.42;32.27;99109.31;4390607;32;34238;-91
2022/07/29 00:18:54;;;;;;;;;;;;;;;28.57;32.06;99108.34;4391498;32;35119;-91
2022/07/29 00:21:21;;;;;;;;;;;;;;;28.20;32.94;99098.19;4376800;32;33631;-89
2022/07/29 00:23:48;;;;;;;;;;;;;;;29.48;30.73;99107.94;4390695;32;34166;-90
2022/07/29 00:26:16;;;;;;;;;;;;;;;28.92;31.61;99099.94;4390424;32;33574;-88
2022/07/29 00:28:43;;;;;;;;;;;;;;;29.42;30.83;99111.84;4390662;32;35301;-86
2022/07/29 00:31:11;;;;;;;;;;;;;;;30.29;29.55;99105.16;4391265;32;34336;-87
2022/07/29 00:33:38;;;;;;;;;;;;;;;29.96;29.72;99103.78;4390219;32;33575;-88
2022/07/29 00:36:06;;;;;;;;;;;;;;;30.12;29.70;99102.75;4390277;32;34002;-89
2022/07/29 00:38:33;;;;;;;;;;;;;;;29.83;30.10;99105.59;4390525;32;34434;-91
2022/07/29 00:41:01;;;;;;;;;;;;;;;29.40;30.87;99108.44;4390459;32;34283;-90
2022/07/29 00:43:28;;;;;;;;;;;;;;;29.35;31.05;99110.53;4376844;32;34056;-89
2022/07/29 00:45:55;;;;;;;;;;;;;;;28.46;32.40;99104.63;4389996;32;35232;-90
2022/07/29 00:48:23;;;;;;;;;;;;;;;27.76;33.92;99104.38;4376440;32;33998;-93
2022/07/29 00:50:50;;;;;;;;;;;;;;;28.50;32.65;99112.34;4390451;32;34110;-89
2022/07/29 00:53:17;;;;;;;;;;;;;;;28.38;32.89;99099.78;4376854;32;33209;-92
2022/07/29 00:55:45;;;;;;;;;;;;;;;27.37;34.54;99111.88;4376748;32;34050;-89
2022/07/29 00:58:13;;;;;;;;;;;;;;;27.40;34.60;99102.88;4376702;32;34229;-87
2022/07/29 01:00:42;;;;;;;;;;;;;;;28.82;32.19;99106.81;4377023;32;35258;-89
2022/07/29 01:03:12;;;;;;;;;;;;;;;28.54;32.64;99107.69;4376970;32;34285;-91
2022/07/29 01:05:39;;;;;;;;;;;;;;;28.35;32.89;99097.25;4391744;32;35043;-90
2022/07/29 01:08:17;;;;;;;;;;;;;;;28.45;32.82;99101.13;4379497;32;34533;-88
2022/07/29 01:10:44;;;;;;;;;;;;;;;28.88;31.99;99095.75;4392634;32;34616;-91
2022/07/29 01:13:11;;;;;;;;;;;;;;;27.63;34.18;99093.53;4378411;32;33527;-91
2022/07/29 01:15:43;;;;;;;;;;;;;;;28.16;33.16;99094.00;4390435;32;34531;-87
2022/07/29 01:18:24;;;;;;;;;;;;;;;27.99;33.60;99093.19;4391973;32;35639;-88
2022/07/29 01:21:01;;;;;;;;;;;;;;;27.35;34.91;99091.59;4378077;32;35149;-90
2022/07/29 01:23:28;;;;;;;;;;;;;;;26.89;35.63;99102.13;4392296;32;33184;-88
2022/07/29 01:26:14;;;;;;;;;;;;;;;27.09;35.28;99098.41;4391744;32;34801;-86
2022/07/29 01:29:00;;;;;;;;;;;;;;;27.70;34.22;99094.06;4391722;32;34578;-89
2022/07/29 01:31:33;;;;;;;;;;;;;;;27.11;35.11;99096.53;4378959;32;34187;-90
2022/07/29 01:34:07;;;;;;;;;;;;;;;27.25;34.90;99093.09;4378089;32;33430;-88
2022/07/29 01:36:36;;;;;;;;;;;;;;;27.69;34.23;99087.84;4377971;32;35309;-90
2022/07/29 01:39:09;;;;;;;;;;;;;;;28.44;32.81;99091.38;4391888;32;35380;-88
2022/07/29 01:41:37;;;;;;;;;;;;;;;27.87;33.81;99093.94;4378182;32;34595;-90
2022/07/29 01:44:15;;;;;;;;;;;;;;;28.35;33.19;99089.25;4377695;32;34339;-88
2022/07/29 01:46:44;;;;;;;;;;;;;;;28.57;32.60;99092.34;4378110;32;34936;-86
2022/07/29 01:49:14;;;;;;;;;;;;;;;27.85;33.91;99088.72;4377824;32;34487;-89
2022/07/29 01:51:43;;;;;;;;;;;;;;;27.77;34.09;99084.75;4391689;32;34567;-89
2022/07/29 01:54:16;;;;;;;;;;;;;;;27.57;34.38;99083.25;4390659;32;33328;-88
2022/07/29 01:56:44;;;;;;;;;;;;;;;27.94;33.84;99091.78;4377813;32;34612;-88
2022/07/29 01:59:12;;;;;;;;;;;;;;;27.29;34.95;99081.31;4377987;32;34537;-89
2022/07/29 02:01:39;;;;;;;;;;;;;;;27.05;35.43;99087.06;4391638;32;35299;-90
2022/07/29 02:04:09;;;;;;;;;;;;;;;28.08;33.62;99086.47;4365165;32;32157;-89
2022/07/29 02:06:37;;;;;;;;;;;;;;;27.68;34.23;99085.28;4378129;32;33876;-89
2022/07/29 02:09:04;;;;;;;;;;;;;;;28.53;32.99;99088.16;4377838;32;33904;-88
2022/07/29 02:11:34;;;;;;;;;;;;;;;29.28;31.53;99090.53;4378224;32;34265;-88
2022/07/29 02:14:02;;;;;;;;;;;;;;;29.09;31.82;99082.84;4377178;32;33968;-90
2022/07/29 02:16:30;;;;;;;;;;;;;;;28.70;32.40;99083.56;4377293;32;34283;-89
2022/07/29 02:18:57;;;;;;;;;;;;;;;28.24;33.32;99078.41;4378002;32;34240;-90
2022/07/29 02:21:25;;;;;;;;;;;;;;;28.89;32.39;99081.44;4377955;32;34739;-88
2022/07/29 02:23:52;;;;;;;;;;;;;;;28.36;33.21;99077.63;4377129;32;34407;-90
2022/07/29 02:26:20;;;;;;;;;;;;;;;27.78;34.25;99081.16;4377401;32;34241;-89
2022/07/29 02:28:48;;;;;;;;;;;;;;;28.36;33.38;99075.81;4377926;32;35032;-92
2022/07/29 02:31:17;;;;;;;;;;;;;;;27.97;33.99;99071.13;4377668;32;35003;-89
2022/07/29 02:33:45;;;;;;;;;;;;;;;28.33;33.42;99080.47;4377476;32;33240;-88
2022/07/29 02:36:12;;;;;;;;;;;;;;;27.55;34.87;99075.34;4378067;32;33819;-89
2022/07/29 02:38:52;;;;;;;;;;;;;;;28.04;33.90;99077.81;4377631;32;33990;-93
2022/07/29 02:41:21;;;;;;;;;;;;;;;27.31;35.14;99076.75;4391313;32;34222;-91
2022/07/29 02:43:48;;;;;;;;;;;;;;;27.23;35.46;99076.34;4377873;32;33434;-89
2022/07/29 02:46:17;;;;;;;;;;;;;;;27.08;35.69;99076.22;4377407;32;33870;-89
2022/07/29 02:48:58;;;;;;;;;;;;;;;27.39;35.19;99070.06;4391435;32;34342;-88
2022/07/29 02:51:28;;;;;;;;;;;;;;;26.80;36.30;99074.25;4391142;32;34975;-88
2022/07/29 02:54:11;;;;;;;;;;;;;;;27.13;35.73;99071.56;4379220;32;33770;-90
2022/07/29 02:56:39;;;;;;;;;;;;;;;27.40;35.28;99073.59;4377540;32;35044;-91
2022/07/29 02:59:08;;;;;;;;;;;;;;;26.90;36.39;99074.62;4390775;32;33974;-91
2022/07/29 03:01:36;;;;;;;;;;;;;;;27.07;35.85;99076.31;4376642;32;34845;-92
2022/07/29 03:04:04;;;;;;;;;;;;;;;26.65;36.59;99077.75;4376834;32;34382;-90
2022/07/29 03:06:32;;;;;;;;;;;;;;;26.76;36.59;99078.03;4376785;32;34136;-87
2022/07/29 03:09:06;;;;;;;;;;;;;;;27.34;35.48;99071.25;4377326;32;34457;-89
2022/07/29 03:11:41;;;;;;;;;;;;;;;26.85;36.30;99079.31;4377086;32;34225;-91
2022/07/29 03:14:17;;;;;;;;;;;;;;;27.37;35.52;99071.09;4377377;32;33371;-90
2022/07/29 03:16:45;;;;;;;;;;;;;;;27.92;34.44;99077.66;4376657;32;35109;-90
2022/07/29 03:19:13;;;;;;;;;;;;;;;27.22;35.58;99074.62;4376633;32;34268;-88
2022/07/29 03:21:40;;;;;;;;;;;;;;;27.41;35.44;99070.81;4389944;32;34196;-89
2022/07/29 03:24:07;;;;;;;;;;;;;;;27.12;35.74;99075.16;4390325;32;33451;-91
2022/07/29 03:26:37;;;;;;;;;;;;;;;26.97;36.19;99073.31;4389653;32;34066;-90
2022/07/29 03:29:04;;;;;;;;;;;;;;;27.27;35.67;99069.91;4390033;32;34285;-89
2022/07/29 03:31:33;;;;;;;;;;;;;;;27.39;35.34;99079.88;4389947;32;34110;-92
2022/07/29 03:34:01;;;;;;;;;;;;;;;26.93;36.21;99080.63;4390190;32;34171;-88
2022/07/29 03:36:28;;;;;;;;;;;;;;;27.62;34.98;99071.37;4390120;32;34359;-89
2022/07/29 03:38:57;;;;;;;;;;;;;;;28.22;33.75;99080.28;4376571;32;35111;-92
2022/07/29 03:41:24;;;;;;;;;;;;;;;27.77;34.47;99082.09;4376330;32;34496;-90
2022/07/29 03:43:51;;;;;;;;;;;;;;;27.53;35.00;99082.56;4375707;32;33122;-86
2022/07/29 03:46:19;;;;;;;;;;;;;;;27.91;34.37;99079.47;4361205;32;34113;-92
2022/07/29 03:48:46;;;;;;;;;;;;;;;27.34;35.39;99082.75;4364308;32;34399;-89
2022/07/29 03:51:14;;;;;;;;;;;;;;;28.30;33.71;99075.38;4375715;32;34524;-87
2022/07/29 03:53:41;;;;;;;;;;;;;;;27.62;34.73;99074.06;4389723;32;34475;-90
2022/07/29 03:56:08;;;;;;;;;;;;;;;27.86;34.40;99073.56;4376204;32;34269;-89
2022/07/29 03:58:36;;;;;;;;;;;;;;;28.03;34.22;99076.06;4349459;32;863276;-88
2022/07/29 04:01:03;;;;;;;;;;;;;;;27.67;34.66;99070.25;4377178;32;35198;-90
2022/07/29 04:03:31;;;;;;;;;;;;;;;27.89;34.32;99084.91;4377181;32;33692;-91
2022/07/29 04:05:59;;;;;;;;;;;;;;;27.98;34.17;99094.16;4390440;32;33871;-89
2022/07/29 04:08:26;;;;;;;;;;;;;;;28.06;34.02;99086.53;4376699;32;35329;-89
2022/07/29 04:10:54;;;;;;;;;;;;;;;27.13;35.60;99090.19;4377070;32;34096;-92
2022/07/29 04:13:21;;;;;;;;;;;;;;;28.10;33.74;99084.56;4390530;32;33526;-88
2022/07/29 04:15:48;;;;;;;;;;;;;;;27.73;34.50;99088.53;4390252;32;34143;-87
2022/07/29 04:18:16;;;;;;;;;;;;;;;27.78;34.49;99094.50;4390662;32;35127;-86
2022/07/29 04:20:43;;;;;;;;;;;;;;;26.86;36.14;99094.34;4376880;32;34138;-91
2022/07/29 04:23:11;;;;;;;;;;;;;;;28.10;33.89;99093.41;4390758;32;33439;-88
2022/07/29 04:25:39;;;;;;;;;;;;;;;28.54;33.08;99089.88;4390705;32;34302;-89
2022/07/29 04:28:06;;;;;;;;;;;;;;;27.82;34.41;99088.03;4376361;32;34320;-89
2022/07/29 04:30:34;;;;;;;;;;;;;;;27.69;34.80;99082.50;4390707;32;34122;-87
2022/07/29 04:33:02;;;;;;;;;;;;;;;28.39;33.50;99088.16;4364573;32;33754;-90
2022/07/29 04:35:30;;;;;;;;;;;;;;;29.18;32.42;99094.78;4376752;32;34263;-89
2022/07/29 04:38:05;;;;;;;;;;;;;;;28.31;33.30;99085.94;4389261;32;34503;-87
2022/07/29 04:40:33;;;;;;;;;;;;;;;28.22;33.69;99088.28;4390308;32;34518;-90
2022/07/29 04:43:00;;;;;;;;;;;;;;;28.46;33.33;99091.31;4389825;32;33252;-88
2022/07/29 04:45:33;;;;;;;;;;;;;;;28.67;32.97;99092.63;4390373;32;33736;-87
2022/07/29 04:48:00;;;;;;;;;;;;;;;28.97;32.30;99091.63;4390319;32;34286;-87
2022/07/29 04:50:27;;;;;;;;;;;;;;;29.37;32.01;99092.59;4390539;32;34168;-90
2022/07/29 04:52:55;;;;;;;;;;;;;;;28.85;32.63;99085.25;4390235;32;34543;-91
2022/07/29 04:55:24;;;;;;;;;;;;;;;27.80;34.57;99090.75;4376349;32;33744;-89
2022/07/29 04:57:51;;;;;;;;;;;;;;;29.04;32.67;99090.31;4389081;32;34008;-90
2022/07/29 05:00:19;;;;;;;;;;;;;;;29.61;31.93;99081.28;4389934;32;35118;-88
2022/07/29 05:02:46;;;;;;;;;;;;;;;29.75;31.58;99084.75;4389834;32;33612;-88
2022/07/29 05:05:14;;;;;;;;;;;;;;;29.12;32.36;99087.16;4390160;32;33903;-92
2022/07/29 05:07:42;;;;;;;;;;;;;;;29.34;32.20;99095.47;4390053;32;35257;-88
2022/07/29 05:10:09;;;;;;;;;;;;;;;29.98;30.80;99091.19;4389825;32;34436;-89
2022/07/29 05:12:36;;;;;;;;;;;;;;;29.99;31.13;99098.25;4389795;32;33750;-90
2022/07/29 05:15:04;;;;;;;;;;;;;;;29.83;31.06;99089.56;4389764;32;35005;-88
2022/07/29 05:17:31;;;;;;;;;;;;;;;29.90;31.12;99090.88;4390037;32;34089;-90
2022/07/29 05:19:59;;;;;;;;;;;;;;;29.98;31.41;99090.34;4389865;32;34236;-91
2022/07/29 05:22:26;;;;;;;;;;;;;;;29.48;31.86;99095.44;4389600;32;33568;-87
2022/07/29 05:24:53;;;;;;;;;;;;;;;29.99;31.48;99089.38;4389544;32;34395;-90
2022/07/29 05:27:20;;;;;;;;;;;;;;;28.98;32.86;99099.59;4388613;32;34171;-90
2022/07/29 05:29:48;;;;;;;;;;;;;;;28.99;32.75;99095.97;4389612;32;34599;-92
2022/07/29 05:32:15;;;;;;;;;;;;;;;29.65;31.92;99093.47;4389533;32;33432;-90
2022/07/29 05:34:42;;;;;;;;;;;;;;;29.09;32.67;99088.19;4389316;32;35109;-89
2022/07/29 05:37:21;;;;;;;;;;;;;;;28.86;33.13;99094.97;4376772;32;34325;-87
2022/07/29 05:39:48;;;;;;;;;;;;;;;30.11;31.20;99093.03;4389267;32;35178;-89
2022/07/29 05:42:24;;;;;;;;;;;;;;;30.42;30.96;99097.12;4389458;32;33624;-88
2022/07/29 05:44:51;;;;;;;;;;;;;;;30.47;30.73;99098.53;4388398;32;34301;-89
2022/07/29 05:47:18;;;;;;;;;;;;;;;31.09;29.78;99086.97;4389414;32;34029;-88
2022/07/29 05:49:46;;;;;;;;;;;;;;;30.98;29.85;99102.97;4390290;32;34506;-91
2022/07/29 05:52:13;;;;;;;;;;;;;;;31.06;30.36;99113.12;4391907;32;33425;-87
2022/07/29 05:54:40;;;;;;;;;;;;;;;30.58;30.31;99107.63;4391738;32;34653;-87
2022/07/29 05:57:08;;;;;;;;;;;;;;;29.87;31.55;99104.44;4391511;32;34004;-92
2022/07/29 05:59:36;;;;;;;;;;;;;;;30.08;31.19;99110.16;4377975;32;33374;-87
2022/07/29 06:02:04;;;;;;;;;;;;;;;30.64;31.04;99112.53;4378214;32;33276;-90
2022/07/29 06:04:33;;;;;;;;;;;;;;;30.36;31.18;99103.78;4391559;32;34973;-89
2022/07/29 06:07:01;;;;;;;;;;;;;;;30.81;30.46;99109.56;4391680;32;34154;-91
2022/07/29 06:09:33;;;;;;;;;;;;;;;31.65;29.07;99105.22;4391638;32;34582;-90
2022/07/29 06:12:02;;;;;;;;;;;;;;;30.70;31.13;99112.09;4391647;32;34312;-89
2022/07/29 06:14:30;;;;;;;;;;;;;;;31.86;29.29;99094.72;4389182;32;34107;-88
2022/07/29 06:16:57;;;;;;;;;;;;;;;31.23;30.10;99102.03;4380643;32;34003;-90
2022/07/29 06:19:24;;;;;;;;;;;;;;;31.16;30.16;99104.31;4407048;32;35165;-90
2022/07/29 06:21:52;;;;;;;;;;;;;;;30.78;31.11;99110.63;4406580;32;33981;-90
2022/07/29 06:24:19;;;;;;;;;;;;;;;31.37;30.33;99106.44;4406677;32;34880;-90
2022/07/29 06:26:47;;;;;;;;;;;;;;;31.26;30.31;99109.87;4361796;32;34011;-89
2022/07/29 06:29:14;;;;;;;;;;;;;;;30.99;30.56;99116.25;4383307;32;34758;-91
2022/07/29 06:31:41;;;;;;;;;;;;;;;30.87;30.72;99113.59;4387959;32;33062;-90
2022/07/29 06:34:09;;;;;;;;;;;;;;;29.92;31.85;99120.16;4384821;32;35286;-92
2022/07/29 06:36:37;;;;;;;;;;;;;;;30.92;30.68;99124.84;4390751;32;34363;-88
2022/07/29 06:39:06;;;;;;;;;;;;;;;30.48;30.92;99118.09;4390499;32;35395;-90
2022/07/29 06:41:33;;;;;;;;;;;;;;;31.13;30.53;99127.78;4376978;32;33416;-91
2022/07/29 06:44:02;;;;;;;;;;;;;;;31.00;30.68;99130.50;4362471;32;34906;-89
2022/07/29 06:46:30;;;;;;;;;;;;;;;30.46;30.85;99141.44;4376324;32;35325;-92
2022/07/29 06:48:57;;;;;;;;;;;;;;;31.91;29.46;99127.41;4387965;32;34844;-88
2022/07/29 06:51:24;;;;;;;;;;;;;;;30.72;30.30;99135.13;4390151;32;33505;-90
2022/07/29 06:53:52;;;;;;;;;;;;;;;31.02;30.43;99123.19;4387770;32;34004;-87
2022/07/29 06:56:33;;;;;;;;;;;;;;;30.74;30.82;99132.37;4376541;32;35047;-89
2022/07/29 06:59:06;;;;;;;;;;;;;;;30.23;31.79;99132.31;4384749;32;33935;-89
2022/07/29 07:01:34;;;;;;;;;;;;;;;30.19;31.68;99133.50;4366495;32;33265;-89
2022/07/29 07:04:02;;;;;;;;;;;;;;;30.78;31.29;99120.47;4376106;32;33841;-90
2022/07/29 07:06:30;;;;;;;;;;;;;;;32.40;28.74;99115.59;4394566;32;34567;-88
2022/07/29 07:08:57;;;;;;;;;;;;;;;31.61;29.65;99115.31;4376910;32;34337;-90
2022/07/29 07:11:24;;;;;;;;;;;;;;;31.83;28.99;99116.37;4390900;32;34317;-88
2022/07/29 07:13:52;;;;;;;;;;;;;;;31.93;29.34;99120.94;4391292;32;33837;-91
2022/07/29 07:16:19;;;;;;;;;;;;;;;31.61;28.90;99120.66;4389826;32;34417;-87
2022/07/29 07:18:46;;;;;;;;;;;;;;;32.20;28.90;99114.41;4376853;32;33201;-90
2022/07/29 07:21:14;;;;;;;;;;;;;;;32.79;28.31;99116.97;4377212;32;34300;-85
2022/07/29 07:23:45;;;;;;;;;;;;;;;32.94;27.52;99115.75;4391154;32;33362;-88
2022/07/29 07:26:13;;;;;;;;;;;;;;;33.02;27.50;99119.66;4390610;32;35344;-86
2022/07/29 07:28:40;;;;;;;;;;;;;;;32.99;27.40;99122.59;4391166;32;35117;-88
2022/07/29 07:31:09;;;;;;;;;;;;;;;33.41;27.53;99119.09;4390390;32;33225;-87
2022/07/29 07:33:38;;;;;;;;;;;;;;;33.75;26.98;99116.31;4390518;32;35083;-92
2022/07/29 07:36:06;;;;;;;;;;;;;;;33.21;27.82;99116.34;4391401;32;34024;-89
2022/07/29 07:38:33;;;;;;;;;;;;;;;32.30;29.10;99114.56;4390830;32;34275;-88
2022/07/29 07:41:01;;;;;;;;;;;;;;;32.88;28.49;99116.25;4391101;32;33103;-88
2022/07/29 07:43:28;;;;;;;;;;;;;;;33.70;27.21;99109.63;4377356;32;34211;-88
2022/07/29 07:45:55;;;;;;;;;;;;;;;33.75;27.08;99110.94;4390631;32;34073;-94
2022/07/29 07:48:23;;;;;;;;;;;;;;;33.55;27.16;99114.44;4384739;32;35024;-89
2022/07/29 07:50:51;;;;;;;;;;;;;;;33.19;27.11;99111.09;4391272;32;33334;-89
2022/07/29 07:53:18;;;;;;;;;;;;;;;33.00;27.44;99113.53;4390731;32;34288;-89
2022/07/29 07:55:46;;;;;;;;;;;;;;;33.31;26.92;99112.78;4376535;32;34822;-88
2022/07/29 07:58:35;;;;;;;;;;;;;;;32.20;28.47;99111.75;4390339;32;34281;-93
2022/07/29 08:01:02;;;;;;;;;;;;;;;31.77;29.68;99106.12;4376903;32;32006;-88
2022/07/29 08:03:30;;;;;;;;;;;;;;;33.60;27.27;99105.03;4390864;32;33768;-88
2022/07/29 08:05:57;;;;;;;;;;;;;;;34.33;26.00;99116.78;4377003;32;33575;-86
2022/07/29 08:08:24;;;;;;;;;;;;;;;34.61;25.87;99109.00;4390995;32;33697;-87
2022/07/29 08:10:52;;;;;;;;;;;;;;;34.51;25.99;99106.28;4391054;32;33509;-86
2022/07/29 08:13:20;;;;;;;;;;;;;;;33.45;26.85;99105.41;4389834;32;35011;-87
2022/07/29 08:15:57;;;;;;;;;;;;;;;33.10;27.74;99111.84;4377115;32;33741;-87
2022/07/29 08:18:25;;;;;;;;;;;;;;;32.39;28.65;99111.16;4390528;32;34373;-86
2022/07/29 08:20:53;;;;;;;;;;;;;;;33.29;27.46;99103.13;4390635;32;33495;-85
2022/07/29 08:23:20;;;;;;;;;;;;;;;33.46;27.40;99101.75;4390460;32;34423;-86
2022/07/29 08:26:13;;;;;;;;;;;;;;;33.75;26.88;99097.47;4380096;32;34973;-89
2022/07/29 08:28:44;;;;;;;;;;;;;;;33.45;26.27;99108.94;4390658;32;34805;-87
2022/07/29 08:31:12;;;;;;;;;;;;;;;34.23;25.74;99105.09;4389185;32;34490;-86
2022/07/29 08:33:39;;;;;;;;;;;;;;;34.30;25.69;99103.56;4390364;32;34176;-88
2022/07/29 08:36:07;;;;;;;;;;;;;;;33.45;26.60;99106.25;4390579;32;34741;-89
2022/07/29 08:38:34;;;;;;;;;;;;;;;34.76;25.05;99102.25;4390353;32;34202;-87
2022/07/29 08:41:01;;;;;;;;;;;;;;;33.51;26.29;99099.56;4390392;32;33092;-88
2022/07/29 08:43:29;;;;;;;;;;;;;;;34.01;26.24;99103.38;4376626;32;33654;-86
2022/07/29 08:45:56;;;;;;;;;;;;;;;33.98;25.58;99098.28;4390268;32;34654;-87
2022/07/29 08:48:24;;;;;;;;;;;;;;;34.34;26.32;99107.69;4390163;32;34280;-88
2022/07/29 08:50:55;;;;;;;;;;;;;;;34.88;25.13;99103.00;4376585;32;33935;-86
2022/07/29 08:53:24;;;;;;;;;;;;;;;34.78;24.33;99108.38;4370249;32;34596;-87
2022/07/29 08:55:51;;;;;;;;;;;;;;;33.84;26.08;99101.25;4389854;32;34061;-87
2022/07/29 08:58:18;;;;;;;;;;;;;;;34.62;24.34;99095.41;4376453;32;35171;-87
2022/07/29 09:00:50;;;;;;;;;;;;;;;34.28;25.16;99097.47;4364420;32;34055;-88
2022/07/29 09:03:18;;;;;;;;;;;;;;;34.88;23.90;99096.78;4376399;32;34963;-83
2022/07/29 09:05:46;;;;;;;;;;;;;;;33.97;25.66;99091.16;4376288;32;34184;-86
2022/07/29 09:08:14;;;;;;;;;;;;;;;35.59;23.03;99092.16;4389225;32;35552;-85
2022/07/29 09:10:42;;;;;;;;;;;;;;;34.07;24.99;99102.00;4376224;32;33144;-84
2022/07/29 09:13:09;;;;;;;;;;;;;;;35.18;23.85;99103.97;4390099;32;33381;-87
2022/07/29 09:15:37;;;;;;;;;;;;;;;34.29;24.49;99099.19;4389669;32;33783;-88
2022/07/29 09:18:04;;;;;;;;;;;;;;;33.56;25.79;99091.94;4389221;32;33949;-86
2022/07/29 09:23:17;;;;;;;;;;;;;;;34.99;24.24;99089.47;4377782;32;34827;-89
2022/07/29 09:25:50;;;;;;;;;;;;;;;35.63;23.22;99090.88;4391323;32;35227;-89
2022/07/29 09:28:18;;;;;;;;;;;;;;;35.73;22.74;99089.03;4391458;32;34452;-88
2022/07/29 09:30:51;;;;;;;;;;;;;;;35.51;22.67;99084.78;4396013;32;33277;-86
2022/07/29 09:33:20;;;;;;;;;;;;;;;36.21;22.44;99074.62;4376575;32;34282;-85
2022/07/29 09:35:58;;;;;;;;;;;;;;;35.93;22.45;99078.22;4365170;32;33929;-89
2022/07/29 09:38:32;;;;;;;;;;;;;;;35.98;22.64;99071.41;4392106;32;34345;-86
2022/07/29 09:41:05;;;;;;;;;;;;;;;35.81;23.29;99075.69;4378121;32;32542;-84
2022/07/29 09:43:52;;;;;;;;;;;;;;;36.75;22.42;99064.97;4379686;32;33829;-93
2022/07/29 09:46:22;;;;;;;;;;;;;;;36.25;21.98;99062.53;4365545;32;34134;-90
2022/07/29 09:49:09;;;;;;;;;;;;;;;35.91;22.67;99067.56;4379379;32;35086;-90
2022/07/29 09:51:36;;;;;;;;;;;;;;;35.61;22.58;99056.94;4378022;32;33129;-87
2022/07/29 09:54:25;;;;;;;;;;;;;;;36.15;21.83;99056.34;4391822;32;33870;-85
2022/07/29 09:57:04;;;;;;;;;;;;;;;36.35;21.58;99056.28;4392239;32;35096;-89
2022/07/29 09:59:35;;;;;;;;;;;;;;;36.69;20.81;99060.16;4378218;32;35191;-87
2022/07/29 10:02:23;;;;;;;;;;;;;;;36.88;20.73;99059.19;4380635;32;33607;-88
2022/07/29 10:04:51;;;;;;;;;;;;;;;36.34;20.98;99055.44;4380382;32;34096;-90
2022/07/29 10:07:26;;;;;;;;;;;;;;;36.13;21.02;99055.63;4395692;32;35131;-91
2022/07/29 10:09:59;;;;;;;;;;;;;;;36.51;20.71;99051.13;4393189;32;34591;-93
2022/07/29 10:12:30;;;;;;;;;;;;;;;36.97;20.73;99052.06;4394758;32;33488;-88
2022/07/29 10:14:58;;;;;;;;;;;;;;;37.17;20.09;99050.09;4405665;32;34279;-86
2022/07/29 10:17:25;;;;;;;;;;;;;;;36.27;20.29;99055.16;4376999;32;33867;-85
2022/07/29 10:19:54;;;;;;;;;;;;;;;36.48;19.72;99063.09;4380408;32;34235;-86
2022/07/29 10:22:23;;;;;;;;;;;;;;;36.97;18.95;99043.94;4383339;32;33186;-88
2022/07/29 10:28:20;;;;;;;;;;;;;;;36.52;19.36;99058.22;4362834;32;32920;-89
2022/07/29 10:30:47;;;;;;;;;;;;;;;37.09;19.43;99050.88;4379638;32;35246;-91
2022/07/29 10:33:17;;;;;;;;;;;;;;;36.91;19.52;99042.69;4390636;32;33474;-92
2022/07/29 10:36:03;;;;;;;;;;;;;;;37.01;19.70;99031.81;4391032;32;33654;-88
2022/07/29 10:38:34;;;;;;;;;;;;;;;35.98;20.54;99040.84;4390584;32;35381;-85
2022/07/29 10:41:26;;;;;;;;;;;;;;;36.33;20.24;99036.66;4391344;32;34583;-87
2022/07/29 10:44:09;;;;;;;;;;;;;;;35.97;20.71;99031.06;4379878;32;33634;-89
2022/07/29 10:46:43;;;;;;;;;;;;;;;37.19;19.73;99019.19;4378316;32;35026;-85
2022/07/29 10:49:12;;;;;;;;;;;;;;;36.99;19.38;99023.88;4391153;32;34221;-86
2022/07/29 10:51:55;;;;;;;;;;;;;;;36.48;20.53;99024.41;4391253;32;35245;-87
2022/07/29 10:54:39;;;;;;;;;;;;;;;36.55;20.38;99017.41;4378056;32;34480;-86
2022/07/29 10:57:12;;;;;;;;;;;;;;;36.77;20.23;99018.87;4390026;32;34227;-86
2022/07/29 10:59:41;;;;;;;;;;;;;;;37.50;19.24;99016.13;4390891;32;35205;-87
2022/07/29 11:02:42;;;;;;;;;;;;;;;36.44;20.27;99022.97;4391256;32;34386;-86
2022/07/29 11:05:20;;;;;;;;;;;;;;;36.98;20.28;99016.78;4390848;32;34231;-87
2022/07/29 11:08:06;;;;;;;;;;;;;;;36.69;19.82;99026.88;4391477;32;34066;-87
2022/07/29 11:10:34;;;;;;;;;;;;;;;37.30;19.35;99009.16;4391250;32;34619;-87
2022/07/29 11:13:01;;;;;;;;;;;;;;;37.79;19.21;99002.31;4377453;32;35219;-87
2022/07/29 11:15:30;;;;;;;;;;;;;;;38.42;17.77;99001.25;4390701;32;33788;-87
2022/07/29 11:18:00;;;;;;;;;;;;;;;38.81;18.08;98996.16;4391080;32;34066;-86
2022/07/29 11:20:34;;;;;;;;;;;;;;;38.78;17.64;98999.16;4391266;32;33541;-87
2022/07/29 11:23:29;;;;;;;;;;;;;;;38.38;18.06;98999.88;4377575;32;35198;-88
2022/07/29 11:26:16;;;;;;;;;;;;;;;37.03;18.81;98994.69;4390550;32;33364;-86
2022/07/29 11:28:57;;;;;;;;;;;;;;;37.09;18.75;98999.50;4391267;32;35034;-87
2022/07/29 11:31:35;;;;;;;;;;;;;;;36.92;19.21;98995.75;4390540;32;34525;-88
2022/07/29 11:34:26;;;;;;;;;;;;;;;36.70;19.51;98994.31;4375735;32;34559;-85
2022/07/29 11:37:09;;;;;;;;;;;;;;;36.57;19.83;98991.12;4386168;32;33428;-87
2022/07/29 11:39:36;;;;;;;;;;;;;;;37.56;18.59;98982.19;4390888;32;34957;-87
2022/07/29 11:42:22;;;;;;;;;;;;;;;37.84;19.47;98985.59;4390680;32;34514;-87
2022/07/29 11:45:01;;;;;;;;;;;;;;;38.05;18.87;98978.00;4390838;32;34679;-88
2022/07/29 11:47:50;;;;;;;;;;;;;;;38.77;17.97;98967.66;4390196;32;34355;-88
2022/07/29 11:50:27;;;;;;;;;;;;;;;38.60;18.04;98963.19;4377400;32;34584;-86
2022/07/29 11:52:54;;;;;;;;;;;;;;;38.87;17.60;98964.81;4390909;32;35405;-87
2022/07/29 11:55:23;;;;;;;;;;;;;;;38.61;17.84;98954.91;4390796;32;34407;-87
2022/07/29 11:57:59;;;;;;;;;;;;;;;38.07;18.47;98958.88;4390842;32;33611;-86
2022/07/29 12:00:32;;;;;;;;;;;;;;;39.07;17.94;98963.50;4390378;32;34227;-85
2022/07/29 12:03:01;;;;;;;;;;;;;;;38.60;17.24;98961.31;4390710;32;34341;-88
2022/07/29 12:05:32;;;;;;;;;;;;;;;36.94;19.28;98968.59;4390845;32;35205;-88
2022/07/29 12:08:07;;;;;;;;;;;;;;;38.17;18.45;98965.03;4390730;32;33316;-80
2022/07/29 12:10:39;;;;;;;;;;;;;;;36.43;19.58;98972.69;4377420;32;34212;-84
2022/07/29 12:13:07;;;;;;;;;;;;;;;36.44;19.34;98966.28;4390550;32;35088;-86
2022/07/29 12:15:35;;;;;;;;;;;;;;;36.58;19.13;98955.00;4376690;32;34099;-86
2022/07/29 12:18:14;;;;;;;;;;;;;;;37.18;19.44;98952.62;4390673;32;34090;-86
2022/07/29 12:20:44;;;;;;;;;;;;;;;38.28;18.68;98955.78;4390291;32;33797;-85
2022/07/29 12:23:12;;;;;;;;;;;;;;;38.50;18.37;98941.69;4390541;32;35308;-86
2022/07/29 12:25:40;;;;;;;;;;;;;;;37.66;19.24;98954.06;4391428;32;34217;-85
2022/07/29 12:28:09;;;;;;;;;;;;;;;38.29;18.39;98946.63;4376797;32;34191;-84
2022/07/29 12:30:49;;;;;;;;;;;;;;;37.53;18.61;98942.78;4377808;32;34915;-85
2022/07/29 12:33:17;;;;;;;;;;;;;;;37.34;18.59;98945.66;4390386;32;35612;-86
2022/07/29 12:35:52;;;;;;;;;;;;;;;37.99;18.12;98938.03;4390409;32;34196;-86
2022/07/29 12:38:34;;;;;;;;;;;;;;;38.96;17.14;98917.75;4365363;32;32227;-85
2022/07/29 12:41:03;;;;;;;;;;;;;;;39.09;16.59;98918.09;4390751;32;33851;-86
2022/07/29 12:43:31;;;;;;;;;;;;;;;38.55;16.87;98920.34;4377036;32;34239;-84
2022/07/29 12:45:59;;;;;;;;;;;;;;;38.60;17.53;98917.97;4389027;32;34178;-86
2022/07/29 12:48:36;;;;;;;;;;;;;;;37.95;17.93;98910.44;4376570;32;34260;-87
2022/07/29 12:51:03;;;;;;;;;;;;;;;38.64;17.92;98908.53;4376647;32;34601;-86
2022/07/29 12:53:31;;;;;;;;;;;;;;;38.61;17.82;98900.72;4389975;32;35337;-85
2022/07/29 12:56:01;;;;;;;;;;;;;;;38.78;16.80;98903.47;4376480;32;34587;-86
2022/07/29 12:58:42;;;;;;;;;;;;;;;39.08;17.02;98900.12;4389733;32;34521;-84
2022/07/29 13:01:12;;;;;;;;;;;;;;;39.45;16.92;98909.63;4391808;32;34113;-85
2022/07/29 13:03:51;;;;;;;;;;;;;;;39.19;16.90;98907.09;4389424;32;35365;-86
2022/07/29 13:06:31;;;;;;;;;;;;;;;38.83;16.89;98906.53;4389027;32;34625;-84
2022/07/29 13:09:25;;;;;;;;;;;;;;;38.08;17.52;98911.87;4362832;32;33439;-92
2022/07/29 13:11:56;;;;;;;;;;;;;;;36.90;18.63;98900.50;4367401;32;33912;-89